KTCM METAR and TAF | Updated Today

KTCM METAR

McChord Air Force Base

Observation time: 44 min. ago

KTCM 011455Z 00000KT 10SM CLR M02/M02 A3014 RMK AO2A SLP214 T10231024 57006 $

Need help? Read our tutorial on how to read METARs or read the parsed version below.

McChord Air Force Base (KTCM) METAR

  • Weather conditions on Wed, 01 Feb 2023 14:55:00 +0000 (44 min. ago):
  • Present conditions: Dry
  • Clouds: Clear skies
  • Visibility: 16093 meters
  • Wind: Calm
  • Temperature: -2 celsius
  • Dew point: -2 celsius
  • Pressure: 30.14 inHg
  • Remarks: AO2A SLP214 T10231024 57006 $


Useful to know...

KTCM TAF

McChord Air Force Base

TAF KTCM 011300Z 0113/0219 VRB06KT 9999 OVC150 QNH3014INS BECMG 0120/0121 17006KT 9999 SCT100 QNH3012INS TX08/0123Z TNM04/0113Z
Observation time: 2:39 hr. ago
Need help? Read our tutorial on how to read TAFs or read the parsed version below.

Parsed version of TAF for McChord Air Force Base (KTCM)

  • From 01 February at 13:00 UTC, to day 02 of the month at 19:00 UTC
  • Clouds: Overcast sky at 4572 meters
  • Visibility: Greater than 10 km
  • Wind: Variable at 6
  • Expected to arise soon, from 01 February at 20:00 UTC, to day 01 of the month at 21:00 UTC
  • Clouds: Scattered at 3048 meters
  • Visibility: Greater than 10 km
  • Wind: 170 degrees at 6